Time;durP1;ratioP1;P1;durP2;ratioP2;P2;SDS_P1;SDS_P2;PMS_P1;PMS_P2;Temp;Humidity;BMP_temperature;BMP_pressure;BME280_temperature;BME280_humidity;BME280_pressure;Samples;Min_cycle;Max_cycle;Signal;HPM_P1;HPM_P2
2023/07/10 00:02:09;;;;;;;7.57;3.70;;;22.30;57.90;;;;;;5041832;28;20878;-71
2023/07/10 00:04:37;;;;;;;6.23;4.50;;;22.30;58.10;;;;;;5055361;28;20515;-70
2023/07/10 00:07:05;;;;;;;7.00;4.60;;;22.30;58.30;;;;;;5055621;28;20442;-70
2023/07/10 00:09:33;;;;;;;7.07;4.80;;;22.20;58.50;;;;;;5055118;28;20445;-70
2023/07/10 00:12:01;;;;;;;6.07;5.03;;;22.10;58.50;;;;;;5050004;28;20438;-70
2023/07/10 00:14:30;;;;;;;6.73;4.17;;;22.10;58.60;;;;;;5035620;28;20438;-70
2023/07/10 00:16:59;;;;;;;7.30;4.73;;;22.00;58.60;;;;;;5035150;28;21008;-70
2023/07/10 00:19:26;;;;;;;6.00;4.40;;;22.00;58.60;;;;;;5035536;28;20434;-70
2023/07/10 00:21:53;;;;;;;7.80;3.90;;;22.10;58.80;;;;;;5035587;28;20474;-70
2023/07/10 00:24:21;;;;;;;9.40;4.57;;;22.00;58.80;;;;;;5043399;28;20813;-70
2023/07/10 00:26:48;;;;;;;5.60;4.50;;;21.90;59.00;;;;;;5054906;28;20436;-70
2023/07/10 00:29:18;;;;;;;8.63;4.40;;;21.90;59.20;;;;;;5054863;28;20447;-70
2023/07/10 00:31:47;;;;;;;7.90;5.93;;;21.90;59.20;;;;;;5055114;28;20448;-70
2023/07/10 00:34:18;;;;;;;7.23;4.70;;;21.90;59.00;;;;;;5055149;28;20466;-70
2023/07/10 00:36:50;;;;;;;8.87;4.47;;;21.90;59.00;;;;;;5055062;28;20795;-70
2023/07/10 00:39:21;;;;;;;7.63;4.53;;;21.90;59.10;;;;;;5036832;28;20439;-70
2023/07/10 00:41:52;;;;;;;9.93;4.50;;;21.80;59.10;;;;;;5034641;28;20480;-70
2023/07/10 00:44:23;;;;;;;7.10;4.70;;;21.80;59.10;;;;;;5034719;28;20431;-70
2023/07/10 00:46:55;;;;;;;7.10;4.60;;;21.80;58.90;;;;;;5034297;28;20449;-70
2023/07/10 00:49:41;;;;;;;6.33;4.73;;;21.70;58.90;;;;;;5034632;28;21065;-70
2023/07/10 00:52:14;;;;;;;7.07;4.90;;;21.70;59.10;;;;;;5034644;28;20445;-71
2023/07/10 00:54:47;;;;;;;5.83;4.33;;;21.70;59.10;;;;;;5034772;28;20814;-70
2023/07/10 00:57:18;;;;;;;8.23;4.53;;;21.60;59.10;;;;;;5034472;28;20429;-69
2023/07/10 00:59:47;;;;;;;7.70;4.03;;;21.50;59.40;;;;;;5034625;28;20449;-70
2023/07/10 01:02:25;;;;;;;6.90;4.60;;;21.50;59.60;;;;;;5034660;28;20450;-70
2023/07/10 01:04:59;;;;;;;5.33;4.13;;;21.40;59.60;;;;;;5034588;28;20418;-70
2023/07/10 01:07:30;;;;;;;7.03;4.07;;;21.40;59.80;;;;;;5045842;28;20438;-70
2023/07/10 01:10:03;;;;;;;8.40;3.90;;;21.40;59.90;;;;;;5037768;28;20442;-70
2023/07/10 01:12:34;;;;;;;5.93;3.97;;;21.40;59.90;;;;;;5034324;28;20790;-70
2023/07/10 01:15:01;;;;;;;8.57;3.93;;;21.40;59.80;;;;;;5034380;28;20438;-70
2023/07/10 01:17:29;;;;;;;7.03;3.90;;;21.20;59.70;;;;;;5034285;28;20444;-70
2023/07/10 01:20:02;;;;;;;6.90;4.40;;;21.10;60.20;;;;;;5034377;28;20434;-70
2023/07/10 01:22:31;;;;;;;5.53;4.10;;;21.10;60.50;;;;;;5035296;28;20473;-70
2023/07/10 01:24:59;;;;;;;5.60;4.30;;;21.00;60.90;;;;;;5034109;28;20441;-70
2023/07/10 01:27:28;;;;;;;12.87;4.60;;;21.00;61.10;;;;;;5034291;28;20767;-70
2023/07/10 01:30:03;;;;;;;8.13;4.77;;;21.00;61.00;;;;;;5046695;28;20815;-70
2023/07/10 01:32:31;;;;;;;10.70;4.30;;;21.00;61.30;;;;;;5051340;28;20455;-70
2023/07/10 01:35:03;;;;;;;10.73;5.00;;;21.00;61.50;;;;;;5035034;28;20450;-70
2023/07/10 01:37:32;;;;;;;5.63;3.70;;;21.00;61.50;;;;;;5053582;28;20430;-70
2023/07/10 01:40:00;;;;;;;8.30;5.10;;;21.10;61.20;;;;;;5053416;28;20448;-70
2023/07/10 01:42:27;;;;;;;6.57;4.00;;;21.00;61.00;;;;;;5051976;28;20898;-69
2023/07/10 01:44:54;;;;;;;11.10;4.30;;;20.90;61.00;;;;;;5053032;28;20454;-70
2023/07/10 01:47:22;;;;;;;8.60;5.20;;;20.90;61.20;;;;;;5053803;28;20473;-72
2023/07/10 01:49:55;;;;;;;6.03;4.30;;;20.80;61.30;;;;;;5038983;28;20481;-70
2023/07/10 01:52:24;;;;;;;7.20;3.60;;;20.80;61.50;;;;;;5051003;28;20448;-70
2023/07/10 01:54:53;;;;;;;5.00;3.40;;;20.70;61.90;;;;;;5053272;28;20487;-70
2023/07/10 01:57:23;;;;;;;5.50;3.60;;;20.60;62.20;;;;;;5052880;28;20461;-70
2023/07/10 01:59:50;;;;;;;8.20;4.37;;;20.60;62.40;;;;;;5053261;28;20444;-70
2023/07/10 02:02:18;;;;;;;6.77;4.37;;;20.60;62.70;;;;;;5053221;28;20479;-70
2023/07/10 02:04:45;;;;;;;8.10;4.07;;;20.60;63.00;;;;;;5053625;28;20854;-70
2023/07/10 02:07:12;;;;;;;5.63;4.43;;;20.60;63.00;;;;;;5034930;28;20448;-71
2023/07/10 02:09:42;;;;;;;5.93;4.10;;;20.60;62.60;;;;;;5047602;28;20466;-70
2023/07/10 02:12:11;;;;;;;5.63;4.70;;;20.50;62.80;;;;;;5053099;28;20450;-70
2023/07/10 02:14:40;;;;;;;9.97;5.57;;;20.50;62.90;;;;;;5053434;28;20553;-70
2023/07/10 02:17:09;;;;;;;7.23;4.63;;;20.50;63.20;;;;;;5053465;28;20445;-70
2023/07/10 02:19:37;;;;;;;6.10;4.00;;;20.40;63.30;;;;;;5053422;28;20440;-69
2023/07/10 02:22:04;;;;;;;5.50;4.03;;;20.40;63.50;;;;;;5052488;28;20965;-70
2023/07/10 02:24:32;;;;;;;5.47;4.10;;;20.40;63.90;;;;;;5036202;28;20846;-70
2023/07/10 02:27:04;;;;;;;5.60;4.17;;;20.30;64.10;;;;;;5033446;28;20437;-70
2023/07/10 02:29:33;;;;;;;5.93;3.80;;;20.30;64.60;;;;;;5033600;28;20438;-70
2023/07/10 02:32:00;;;;;;;7.00;4.50;;;20.20;65.00;;;;;;5047403;28;20938;-70
2023/07/10 02:34:30;;;;;;;6.00;4.63;;;20.10;65.20;;;;;;5053310;28;20439;-70
2023/07/10 02:36:59;;;;;;;6.20;4.37;;;20.10;65.60;;;;;;5053347;28;20477;-70
2023/07/10 02:39:26;;;;;;;7.70;4.60;;;20.00;65.90;;;;;;5053063;28;20444;-70
2023/07/10 02:41:54;;;;;;;8.80;5.43;;;20.00;66.20;;;;;;5052772;28;20503;-70
2023/07/10 02:44:21;;;;;;;6.93;5.10;;;20.00;66.40;;;;;;5053206;28;20444;-70
2023/07/10 02:46:50;;;;;;;8.20;5.00;;;20.00;66.30;;;;;;5035007;28;20449;-70
2023/07/10 02:49:17;;;;;;;8.40;5.80;;;20.00;65.90;;;;;;5032893;28;20516;-70
2023/07/10 02:51:45;;;;;;;7.50;4.90;;;19.90;65.70;;;;;;5032941;28;20448;-69
2023/07/10 02:54:14;;;;;;;7.93;5.53;;;19.80;65.90;;;;;;5042095;28;20472;-69
2023/07/10 02:56:42;;;;;;;5.63;4.67;;;19.80;66.30;;;;;;5053140;28;20433;-69
2023/07/10 02:59:09;;;;;;;6.93;4.63;;;19.80;66.60;;;;;;5047439;28;20784;-72
2023/07/10 03:01:36;;;;;;;8.83;5.43;;;19.80;66.40;;;;;;5045743;28;20481;-70
2023/07/10 03:04:05;;;;;;;6.30;4.13;;;19.80;66.50;;;;;;5032672;28;20943;-70
2023/07/10 03:06:33;;;;;;;6.07;4.37;;;19.90;66.30;;;;;;5032725;28;20935;-69
2023/07/10 03:09:05;;;;;;;9.23;5.27;;;19.90;66.10;;;;;;5035717;28;20467;-69
2023/07/10 03:11:33;;;;;;;8.70;4.90;;;19.90;66.00;;;;;;5052162;28;20443;-69
2023/07/10 03:14:02;;;;;;;10.30;4.53;;;19.90;65.90;;;;;;5056559;28;20516;-69
2023/07/10 03:16:30;;;;;;;6.37;3.63;;;20.00;66.00;;;;;;5041614;28;20502;-69
2023/07/10 03:18:57;;;;;;;5.63;4.00;;;20.00;66.20;;;;;;5036542;28;20838;-69
2023/07/10 03:21:26;;;;;;;8.57;4.90;;;20.00;66.30;;;;;;5036443;28;20916;-72
2023/07/10 03:23:54;;;;;;;5.90;4.10;;;20.00;65.80;;;;;;5042001;28;20433;-72
2023/07/10 03:26:21;;;;;;;6.03;3.97;;;20.00;65.90;;;;;;5056103;28;20948;-71
2023/07/10 03:29:01;;;;;;;9.30;4.77;;;20.00;65.90;;;;;;5056323;28;20444;-71
2023/07/10 03:31:29;;;;;;;5.87;5.13;;;20.00;66.20;;;;;;5038873;28;20520;-71
2023/07/10 03:33:56;;;;;;;9.73;5.20;;;20.00;66.50;;;;;;5052615;28;20438;-71
2023/07/10 03:36:27;;;;;;;5.70;4.70;;;20.00;66.60;;;;;;5055913;28;20436;-71
2023/07/10 03:38:54;;;;;;;6.50;5.20;;;20.00;66.80;;;;;;5056226;28;20474;-71
2023/07/10 03:41:22;;;;;;;8.13;4.00;;;20.00;66.60;;;;;;5055764;28;20481;-71
2023/07/10 03:43:49;;;;;;;7.03;3.53;;;19.90;66.40;;;;;;5055984;28;20845;-71
2023/07/10 03:46:17;;;;;;;7.43;4.40;;;19.90;66.60;;;;;;5056056;28;20498;-71
2023/07/10 03:48:45;;;;;;;6.53;4.97;;;19.90;66.70;;;;;;5055003;28;20451;-71
2023/07/10 03:51:12;;;;;;;7.17;4.60;;;19.90;66.70;;;;;;5046540;28;20432;-71
2023/07/10 03:53:41;;;;;;;8.10;5.93;;;19.90;66.90;;;;;;5055415;28;20797;-71
2023/07/10 03:56:09;;;;;;;7.20;4.70;;;19.90;67.20;;;;;;5055458;28;20945;-72
2023/07/10 03:58:39;;;;;;;8.50;5.20;;;19.90;67.50;;;;;;5055872;28;20522;-69
2023/07/10 04:01:06;;;;;;;7.77;4.90;;;19.90;67.70;;;;;;5055557;28;20472;-69
2023/07/10 04:03:38;;;;;;;7.03;4.63;;;20.00;67.70;;;;;;5037581;28;20460;-69
2023/07/10 04:06:11;;;;;;;8.90;5.00;;;19.90;67.70;;;;;;5035297;28;20433;-72
2023/07/10 04:08:42;;;;;;;6.30;4.77;;;20.00;68.10;;;;;;5045564;28;20435;-72
2023/07/10 04:11:16;;;;;;;5.67;4.90;;;19.90;67.90;;;;;;5055544;28;20471;-71
2023/07/10 04:13:43;;;;;;;6.30;5.00;;;19.90;67.80;;;;;;5055577;28;20826;-71
2023/07/10 04:16:14;;;;;;;5.80;4.93;;;20.00;67.70;;;;;;5055464;28;20458;-72
2023/07/10 04:18:43;;;;;;;7.50;5.67;;;20.00;67.80;;;;;;5051614;28;20433;-71
2023/07/10 04:21:15;;;;;;;6.93;4.40;;;20.00;68.00;;;;;;5035039;28;20467;-71
2023/07/10 04:23:44;;;;;;;8.63;4.77;;;20.00;68.00;;;;;;5034965;28;20442;-71
2023/07/10 04:26:19;;;;;;;7.87;4.70;;;20.10;67.90;;;;;;5035405;28;20445;-71
2023/07/10 04:28:47;;;;;;;10.07;5.73;;;20.10;68.30;;;;;;5035321;28;20428;-69
2023/07/10 04:31:18;;;;;;;13.13;7.47;;;20.20;69.00;;;;;;5035217;28;20488;-71
2023/07/10 04:33:48;;;;;;;13.50;8.10;;;20.20;69.50;;;;;;5034614;28;20446;-72
2023/07/10 04:36:15;;;;;;;7.23;5.20;;;20.30;70.10;;;;;;5035279;28;20523;-71
2023/07/10 04:38:44;;;;;;;8.70;4.30;;;20.30;70.50;;;;;;5035063;28;20441;-71
2023/07/10 04:41:13;;;;;;;6.53;4.50;;;20.30;70.60;;;;;;5034590;28;20820;-72
2023/07/10 04:43:42;;;;;;;6.43;5.23;;;20.30;70.70;;;;;;5034662;28;20434;-71
2023/07/10 04:46:15;;;;;;;6.43;4.83;;;20.40;70.80;;;;;;5034617;28;20440;-71
2023/07/10 04:48:46;;;;;;;7.10;4.07;;;20.40;70.70;;;;;;5049355;28;20515;-72
2023/07/10 04:51:15;;;;;;;9.43;5.37;;;20.40;70.50;;;;;;5053935;28;20433;-73
2023/07/10 04:53:45;;;;;;;9.73;5.93;;;20.50;70.60;;;;;;5034432;28;20434;-72
2023/07/10 04:56:14;;;;;;;12.07;5.17;;;20.50;71.50;;;;;;5034488;28;20482;-72
2023/07/10 04:58:51;;;;;;;8.87;4.40;;;20.60;72.20;;;;;;5034705;28;20491;-72
2023/07/10 05:01:20;;;;;;;6.83;6.13;;;20.70;73.60;;;;;;5034255;28;20455;-72
2023/07/10 05:03:47;;;;;;;6.07;3.97;;;20.80;73.70;;;;;;5034241;28;20468;-75
2023/07/10 05:06:17;;;;;;;8.70;4.67;;;20.90;73.90;;;;;;5037126;28;20439;-72
2023/07/10 05:08:46;;;;;;;10.87;5.30;;;21.00;73.70;;;;;;5039525;28;20443;-72
2023/07/10 05:11:14;;;;;;;5.73;4.87;;;21.10;74.30;;;;;;5038643;28;21161;-72
2023/07/10 05:13:42;;;;;;;8.53;5.23;;;21.30;74.80;;;;;;5043111;28;20447;-71
2023/07/10 05:16:09;;;;;;;9.33;5.07;;;21.40;73.80;;;;;;5033455;28;20533;-71
2023/07/10 05:18:37;;;;;;;9.83;5.57;;;21.50;73.70;;;;;;5033260;28;20449;-71
2023/07/10 05:21:07;;;;;;;9.40;5.70;;;21.60;73.90;;;;;;5033388;28;20439;-73
2023/07/10 05:23:35;;;;;;;11.43;5.03;;;21.70;73.70;;;;;;5033363;28;20559;-72
2023/07/10 05:26:06;;;;;;;10.93;5.70;;;21.80;73.20;;;;;;5033165;28;20447;-72
2023/07/10 05:28:35;;;;;;;7.63;5.30;;;21.90;71.50;;;;;;5034109;28;20435;-72
2023/07/10 05:31:03;;;;;;;9.63;4.80;;;21.90;71.70;;;;;;5042607;28;20448;-70
2023/07/10 05:33:31;;;;;;;9.73;4.83;;;22.10;72.80;;;;;;5035455;28;20447;-70
2023/07/10 05:36:00;;;;;;;6.73;5.10;;;22.10;73.20;;;;;;5037498;28;20426;-70
2023/07/10 05:38:32;;;;;;;5.93;4.00;;;22.20;73.50;;;;;;5052885;28;20439;-70
2023/07/10 05:41:01;;;;;;;8.10;5.63;;;22.30;73.30;;;;;;5053496;28;20430;-70
2023/07/10 05:43:32;;;;;;;9.80;5.90;;;22.30;71.50;;;;;;5053329;28;20846;-70
2023/07/10 05:45:59;;;;;;;7.43;5.10;;;22.30;71.60;;;;;;5053331;28;20441;-70
2023/07/10 05:48:27;;;;;;;7.90;5.00;;;22.40;69.60;;;;;;5053298;28;20434;-72
2023/07/10 05:50:54;;;;;;;8.23;5.30;;;22.40;69.10;;;;;;5035935;28;20895;-72
2023/07/10 05:53:22;;;;;;;13.13;5.10;;;22.50;69.90;;;;;;5033219;28;20453;-72
2023/07/10 05:55:50;;;;;;;8.00;4.20;;;22.60;69.80;;;;;;5033266;28;20625;-72
2023/07/10 05:58:19;;;;;;;7.20;4.60;;;22.70;69.90;;;;;;5032962;28;20447;-71
2023/07/10 06:00:49;;;;;;;6.83;4.77;;;22.70;69.50;;;;;;5046922;28;20448;-72
2023/07/10 06:03:17;;;;;;;9.73;4.90;;;22.80;69.00;;;;;;5052652;28;20472;-71
2023/07/10 06:05:54;;;;;;;8.30;4.80;;;22.90;69.30;;;;;;5049338;28;20545;-71
2023/07/10 06:08:21;;;;;;;7.17;5.00;;;23.00;69.80;;;;;;5052954;28;20430;-73
2023/07/10 06:10:48;;;;;;;7.73;4.90;;;23.10;67.00;;;;;;5052058;28;20520;-72
2023/07/10 06:13:15;;;;;;;11.70;6.97;;;23.10;66.60;;;;;;5052973;28;20498;-71
2023/07/10 06:15:42;;;;;;;7.13;4.90;;;23.30;67.90;;;;;;5052625;28;20477;-71
2023/07/10 06:18:11;;;;;;;8.90;4.83;;;23.30;71.20;;;;;;5052501;28;20475;-72
2023/07/10 06:20:38;;;;;;;5.43;4.07;;;23.40;72.50;;;;;;5050596;28;20434;-71
2023/07/10 06:23:05;;;;;;;5.40;4.50;;;23.50;72.90;;;;;;5052448;28;20517;-71
2023/07/10 06:25:32;;;;;;;6.50;4.10;;;23.60;73.00;;;;;;5052521;28;20450;-70
2023/07/10 06:27:59;;;;;;;8.50;5.90;;;23.70;72.40;;;;;;5050371;28;20576;-70
2023/07/10 06:30:26;;;;;;;9.30;5.40;;;23.70;71.90;;;;;;5032921;28;20864;-70
2023/07/10 06:32:53;;;;;;;14.03;4.13;;;23.80;71.70;;;;;;5032672;28;20443;-69
2023/07/10 06:35:21;;;;;;;11.80;4.70;;;23.90;70.80;;;;;;5046174;28;20445;-69
2023/07/10 06:37:49;;;;;;;9.90;4.90;;;24.00;69.80;;;;;;5043984;28;20448;-70
2023/07/10 06:40:21;;;;;;;9.87;4.60;;;24.10;68.70;;;;;;5047802;28;20447;-71
2023/07/10 06:42:51;;;;;;;11.90;4.13;;;24.10;67.40;;;;;;5039442;28;20946;-70
2023/07/10 06:45:19;;;;;;;9.50;4.20;;;24.20;66.90;;;;;;5035986;28;20457;-70
2023/07/10 06:47:47;;;;;;;7.83;4.67;;;24.30;65.70;;;;;;5035989;28;20467;-70
2023/07/10 06:50:15;;;;;;;6.53;4.37;;;24.30;65.30;;;;;;5054255;28;20467;-70
2023/07/10 06:52:45;;;;;;;7.80;4.90;;;24.40;64.90;;;;;;5056826;28;20512;-69
2023/07/10 06:55:14;;;;;;;5.97;4.80;;;24.50;65.00;;;;;;5056926;28;20434;-69
2023/07/10 06:57:41;;;;;;;9.03;5.20;;;24.60;65.20;;;;;;5056649;28;20915;-69
2023/07/10 07:00:15;;;;;;;8.00;4.97;;;24.80;64.70;;;;;;5056966;28;20668;-70
2023/07/10 07:02:42;;;;;;;9.77;5.07;;;24.90;64.20;;;;;;5056981;28;20459;-69
2023/07/10 07:05:10;;;;;;;8.27;4.80;;;25.00;63.50;;;;;;5056537;28;20452;-69
2023/07/10 07:07:39;;;;;;;8.20;4.77;;;25.10;62.50;;;;;;5056453;28;20439;-69
2023/07/10 07:10:13;;;;;;;8.93;5.47;;;25.20;61.40;;;;;;5056650;28;20481;-69
2023/07/10 07:12:40;;;;;;;7.93;4.20;;;25.30;61.60;;;;;;5056525;28;20914;-69
2023/07/10 07:15:08;;;;;;;10.73;4.83;;;25.50;60.40;;;;;;5056322;28;20446;-70
2023/07/10 07:17:35;;;;;;;7.47;4.03;;;25.60;59.80;;;;;;5056706;28;20849;-70
2023/07/10 07:20:03;;;;;;;7.03;4.87;;;25.70;59.20;;;;;;5056306;28;20934;-69
2023/07/10 07:22:35;;;;;;;7.10;4.20;;;25.80;59.30;;;;;;5056109;28;20476;-69
2023/07/10 07:25:02;;;;;;;8.47;4.30;;;25.80;56.40;;;;;;5056476;28;20490;-69
2023/07/10 07:27:31;;;;;;;6.70;3.23;;;25.90;56.00;;;;;;5056478;28;20441;-69
2023/07/10 07:30:04;;;;;;;4.73;3.60;;;26.10;56.00;;;;;;5056449;28;20822;-69
2023/07/10 07:32:32;;;;;;;5.90;4.37;;;26.20;54.10;;;;;;5056072;28;20468;-69
2023/07/10 07:34:59;;;;;;;6.23;4.53;;;26.20;53.60;;;;;;5056030;28;20469;-69
2023/07/10 07:37:26;;;;;;;6.10;3.90;;;26.30;53.40;;;;;;5056008;28;20435;-69
2023/07/10 07:39:54;;;;;;;4.80;3.50;;;26.40;54.10;;;;;;5056222;28;20441;-69
2023/07/10 07:42:21;;;;;;;6.47;3.50;;;26.60;54.60;;;;;;5055797;28;20555;-70
2023/07/10 07:44:50;;;;;;;11.37;4.17;;;26.70;54.50;;;;;;5056264;28;20439;-69
2023/07/10 07:47:17;;;;;;;7.43;3.93;;;26.80;54.50;;;;;;5055773;28;20473;-69
2023/07/10 07:49:44;;;;;;;5.40;3.50;;;26.90;54.40;;;;;;5055565;28;20533;-70
2023/07/10 07:52:11;;;;;;;7.67;3.80;;;27.00;53.80;;;;;;5056013;28;20495;-69
2023/07/10 07:54:38;;;;;;;6.17;3.90;;;27.00;53.20;;;;;;5054401;28;20853;-69
2023/07/10 07:57:06;;;;;;;7.07;4.33;;;27.10;52.30;;;;;;5053573;28;20499;-70
2023/07/10 07:59:36;;;;;;;7.37;4.20;;;27.10;51.60;;;;;;5055881;28;20437;-69
2023/07/10 08:02:05;;;;;;;8.17;3.60;;;27.10;51.10;;;;;;5055465;28;20487;-69
2023/07/10 08:04:32;;;;;;;8.40;4.43;;;27.10;49.90;;;;;;5055733;28;20491;-69
2023/07/10 08:06:59;;;;;;;5.87;4.10;;;27.20;49.50;;;;;;5055289;28;20503;-69
2023/07/10 08:09:26;;;;;;;8.97;3.93;;;27.10;48.10;;;;;;5055181;28;20481;-69
2023/07/10 08:11:53;;;;;;;12.20;4.90;;;27.10;48.10;;;;;;5055567;28;20448;-69
2023/07/10 08:14:21;;;;;;;10.87;4.10;;;27.10;48.20;;;;;;5055223;28;20532;-69
2023/07/10 08:16:48;;;;;;;5.30;3.40;;;27.00;48.40;;;;;;5055553;28;20445;-69
2023/07/10 08:19:16;;;;;;;8.43;3.93;;;27.00;48.50;;;;;;5055110;28;20437;-69
2023/07/10 08:21:43;;;;;;;7.90;4.00;;;27.00;48.60;;;;;;5055084;28;20528;-69
2023/07/10 08:24:10;;;;;;;5.40;3.60;;;27.00;48.20;;;;;;5055232;28;20480;-69
2023/07/10 08:26:42;;;;;;;12.00;6.00;;;27.00;47.60;;;;;;5055530;28;20526;-70
2023/07/10 08:29:24;;;;;;;7.90;4.80;;;26.90;47.30;;;;;;5055030;28;20923;-69
2023/07/10 08:31:52;;;;;;;10.83;4.20;;;26.90;47.10;;;;;;5055340;28;20611;-69
2023/07/10 08:34:21;;;;;;;8.40;4.33;;;26.80;47.00;;;;;;5054879;28;20453;-69
2023/07/10 08:36:48;;;;;;;8.33;4.07;;;26.70;47.10;;;;;;5054710;28;20448;-69
2023/07/10 08:39:15;;;;;;;13.00;4.43;;;26.70;47.50;;;;;;5055039;28;20448;-69
2023/07/10 08:41:43;;;;;;;10.67;4.60;;;26.60;48.20;;;;;;5055048;28;20520;-69
2023/07/10 08:44:13;;;;;;;5.87;3.90;;;26.60;49.20;;;;;;5054937;28;20843;-69
2023/07/10 08:46:40;;;;;;;12.33;4.60;;;26.50;50.00;;;;;;5055043;28;20433;-69
2023/07/10 08:49:16;;;;;;;7.20;4.17;;;26.40;50.50;;;;;;5054151;28;20872;-69
2023/07/10 08:51:53;;;;;;;9.07;3.90;;;26.40;52.50;;;;;;5054512;28;20898;-69
2023/07/10 08:54:20;;;;;;;10.80;4.70;;;26.30;53.50;;;;;;5054987;28;20491;-69
2023/07/10 08:56:51;;;;;;;7.10;4.10;;;26.20;54.20;;;;;;5054447;28;20471;-70
2023/07/10 08:59:38;;;;;;;8.33;4.30;;;26.20;55.10;;;;;;5054787;28;20471;-69
2023/07/10 09:02:16;;;;;;;9.90;4.83;;;26.10;55.50;;;;;;5054656;28;20481;-69
2023/07/10 09:04:45;;;;;;;9.53;5.60;;;26.10;55.50;;;;;;5054168;28;20496;-69
2023/07/10 09:07:14;;;;;;;8.53;4.40;;;26.10;56.80;;;;;;5054230;28;20493;-69
2023/07/10 09:09:45;;;;;;;8.97;4.77;;;26.00;57.00;;;;;;5054338;28;20465;-69
2023/07/10 09:12:16;;;;;;;6.30;4.63;;;25.90;56.50;;;;;;5054492;28;20483;-69
2023/07/10 09:14:50;;;;;;;9.50;4.30;;;25.90;57.90;;;;;;5054564;28;20480;-69
2023/07/10 09:17:25;;;;;;;7.67;5.50;;;25.80;59.30;;;;;;5054380;28;20429;-72
2023/07/10 09:19:57;;;;;;;8.23;4.53;;;25.70;58.80;;;;;;5053975;28;20463;-69
2023/07/10 09:22:26;;;;;;;9.90;4.40;;;25.60;59.10;;;;;;5053969;28;20436;-69
2023/07/10 09:24:54;;;;;;;9.40;4.93;;;25.40;59.70;;;;;;5054433;28;20445;-69
2023/07/10 09:27:21;;;;;;;8.73;4.90;;;25.30;59.40;;;;;;5053471;28;20442;-69
2023/07/10 09:29:51;;;;;;;8.70;5.10;;;25.10;60.20;;;;;;5054081;28;20445;-69
2023/07/10 09:32:20;;;;;;;6.70;4.43;;;25.00;62.10;;;;;;5054386;28;20444;-69
2023/07/10 09:34:51;;;;;;;10.87;5.80;;;24.90;60.50;;;;;;5053999;28;20447;-69
2023/07/10 09:37:21;;;;;;;7.60;4.30;;;24.80;60.70;;;;;;5054167;28;20432;-69
2023/07/10 09:39:49;;;;;;;7.87;3.93;;;24.70;61.50;;;;;;5053936;28;20463;-69
2023/07/10 09:42:19;;;;;;;12.80;4.27;;;24.70;61.50;;;;;;5053969;28;20801;-69
2023/07/10 09:44:50;;;;;;;10.87;4.43;;;24.80;61.50;;;;;;5053487;28;20502;-69
2023/07/10 09:47:17;;;;;;;9.23;4.70;;;24.90;61.60;;;;;;5053519;28;20474;-69
2023/07/10 09:49:48;;;;;;;7.77;5.50;;;25.10;61.00;;;;;;5053249;28;20986;-69
2023/07/10 09:52:24;;;;;;;9.53;5.03;;;25.20;61.00;;;;;;5053875;28;20455;-69
2023/07/10 09:55:00;;;;;;;9.43;4.90;;;25.40;61.60;;;;;;5053603;28;20431;-69
2023/07/10 09:57:27;;;;;;;8.30;4.23;;;25.60;61.60;;;;;;5053364;28;20432;-69
2023/07/10 10:00:02;;;;;;;6.73;4.80;;;25.80;61.00;;;;;;5053741;28;20505;-69
2023/07/10 10:02:41;;;;;;;5.97;4.63;;;25.90;60.80;;;;;;5053770;28;20836;-69
2023/07/10 10:05:16;;;;;;;10.63;5.13;;;26.20;62.20;;;;;;5053373;28;20432;-68
2023/07/10 10:07:45;;;;;;;7.40;4.30;;;26.50;63.30;;;;;;5053238;28;20429;-69
2023/07/10 10:10:23;;;;;;;7.73;5.17;;;26.80;62.90;;;;;;5053431;28;20434;-69
2023/07/10 10:12:55;;;;;;;7.60;4.17;;;27.10;64.00;;;;;;5053061;28;20945;-69
2023/07/10 10:15:35;;;;;;;7.70;4.83;;;27.40;62.10;;;;;;5049942;28;20512;-70
2023/07/10 10:18:05;;;;;;;8.53;5.20;;;27.70;60.10;;;;;;5052321;28;20429;-69
2023/07/10 10:20:35;;;;;;;7.80;4.27;;;28.00;59.00;;;;;;5053215;28;20421;-69
2023/07/10 10:23:02;;;;;;;9.50;4.70;;;28.20;55.90;;;;;;5052971;28;20437;-69
2023/07/10 10:25:37;;;;;;;14.77;5.20;;;28.40;54.80;;;;;;5053400;28;20498;-70
2023/07/10 10:28:23;;;;;;;7.13;4.67;;;28.60;55.30;;;;;;5053432;28;20463;-70
2023/07/10 10:30:54;;;;;;;9.97;4.80;;;28.90;55.60;;;;;;5053506;28;20491;-69
2023/07/10 10:33:28;;;;;;;9.07;4.70;;;29.10;56.00;;;;;;5030567;28;20442;-69
2023/07/10 10:36:00;;;;;;;9.60;4.87;;;29.30;54.30;;;;;;5033461;28;20430;-69
2023/07/10 10:38:40;;;;;;;9.50;5.53;;;29.50;54.00;;;;;;5032974;28;20427;-69
2023/07/10 10:41:26;;;;;;;11.77;5.30;;;29.70;52.90;;;;;;5033300;28;20426;-69
2023/07/10 10:44:01;;;;;;;8.20;4.87;;;29.80;52.30;;;;;;5032712;28;20470;-69
2023/07/10 10:46:41;;;;;;;10.37;5.60;;;30.00;53.30;;;;;;5032884;28;20966;-69
2023/07/10 10:49:24;;;;;;;8.47;5.30;;;30.10;53.00;;;;;;5032453;28;20539;-70
2023/07/10 10:52:02;;;;;;;10.00;4.67;;;30.20;52.20;;;;;;5033203;28;20434;-69
2023/07/10 10:54:36;;;;;;;10.20;5.33;;;30.30;51.60;;;;;;5033231;28;20430;-69
2023/07/10 10:57:22;;;;;;;8.20;4.97;;;30.50;50.90;;;;;;5033208;28;20435;-69
2023/07/10 11:00:04;;;;;;;7.37;4.57;;;30.50;50.00;;;;;;5032711;28;20434;-70
2023/07/10 11:02:46;;;;;;;15.60;5.33;;;30.60;49.80;;;;;;5033076;28;20422;-71
2023/07/10 11:05:21;;;;;;;9.73;6.10;;;30.80;50.20;;;;;;5032442;28;20524;-69
2023/07/10 11:07:54;;;;;;;9.60;5.80;;;31.00;48.40;;;;;;5032423;28;20457;-69
2023/07/10 11:10:30;;;;;;;10.40;4.83;;;31.10;48.30;;;;;;5032586;28;20422;-69
2023/07/10 11:12:59;;;;;;;11.40;5.63;;;31.20;47.70;;;;;;5047335;28;20482;-69
2023/07/10 11:15:29;;;;;;;6.63;4.20;;;31.30;47.60;;;;;;5048736;28;20438;-69
2023/07/10 11:17:58;;;;;;;11.70;5.70;;;31.30;47.10;;;;;;5036642;28;20476;-69
2023/07/10 11:20:32;;;;;;;6.97;5.23;;;31.40;47.70;;;;;;5049454;28;20437;-69
2023/07/10 11:23:02;;;;;;;6.83;4.87;;;31.50;45.90;;;;;;5052428;28;20926;-69
2023/07/10 11:25:34;;;;;;;7.70;4.87;;;31.60;45.90;;;;;;5052029;28;20469;-69
2023/07/10 11:28:19;;;;;;;8.00;4.87;;;31.80;45.80;;;;;;5052563;28;20430;-69
2023/07/10 11:30:47;;;;;;;6.20;4.20;;;31.90;43.90;;;;;;5056198;28;20429;-69
2023/07/10 11:33:19;;;;;;;6.83;5.13;;;31.90;43.60;;;;;;5052555;28;20841;-69
2023/07/10 11:36:11;;;;;;;6.60;4.50;;;31.90;42.30;;;;;;5042758;28;20438;-69
2023/07/10 11:38:55;;;;;;;8.93;5.63;;;32.00;41.10;;;;;;5017007;28;20529;-69
2023/07/10 11:41:31;;;;;;;6.53;4.47;;;32.10;41.10;;;;;;5036181;28;20426;-69
2023/07/10 11:44:20;;;;;;;5.80;4.20;;;32.10;41.00;;;;;;5042005;28;21032;-69
2023/07/10 11:47:17;;;;;;;6.80;4.80;;;32.10;41.20;;;;;;5046856;28;20426;-69
2023/07/10 11:49:47;;;;;;;5.90;4.27;;;32.10;40.40;;;;;;5035737;28;20466;-69
2023/07/10 11:52:30;;;;;;;7.80;4.40;;;32.10;41.00;;;;;;5036326;28;20510;-70
2023/07/10 11:55:07;;;;;;;9.80;4.50;;;32.20;41.10;;;;;;5035641;28;20932;-69
2023/07/10 11:57:35;;;;;;;10.27;5.13;;;32.30;41.30;;;;;;5035784;28;20430;-69
2023/07/10 12:00:20;;;;;;;6.73;5.03;;;32.30;41.30;;;;;;5034322;28;20783;-69
2023/07/10 12:02:48;;;;;;;6.50;4.33;;;32.40;41.10;;;;;;5035841;28;20434;-69
2023/07/10 12:05:19;;;;;;;6.50;4.67;;;32.50;42.30;;;;;;5035298;28;20474;-69
2023/07/10 12:07:57;;;;;;;9.83;6.20;;;32.50;41.90;;;;;;5035350;28;20443;-69
2023/07/10 12:10:26;;;;;;;6.50;4.93;;;32.60;40.90;;;;;;5035601;28;20764;-69
2023/07/10 12:12:54;;;;;;;7.00;4.87;;;32.60;40.90;;;;;;5035696;28;20423;-69
2023/07/10 12:15:23;;;;;;;6.47;4.80;;;32.60;41.60;;;;;;5035631;28;20785;-69
2023/07/10 12:17:55;;;;;;;7.73;4.97;;;32.80;41.90;;;;;;5035526;28;20470;-69
2023/07/10 12:20:26;;;;;;;7.40;4.93;;;32.80;42.00;;;;;;5035447;28;20430;-69
2023/07/10 12:22:55;;;;;;;6.87;5.07;;;32.80;42.00;;;;;;5035192;28;20473;-69
2023/07/10 12:25:23;;;;;;;9.70;5.43;;;32.90;41.30;;;;;;5034772;28;20535;-69
2023/07/10 12:27:52;;;;;;;6.83;4.60;;;33.00;41.10;;;;;;5034908;28;20443;-69
2023/07/10 12:30:26;;;;;;;8.57;5.07;;;33.10;40.70;;;;;;5034939;28;20496;-69
2023/07/10 12:32:56;;;;;;;8.50;5.10;;;33.10;40.60;;;;;;5035223;28;20433;-69
2023/07/10 12:35:30;;;;;;;6.40;5.23;;;33.00;40.30;;;;;;5034201;28;20485;-69
2023/07/10 12:38:00;;;;;;;9.63;5.50;;;33.00;40.00;;;;;;5034779;28;20437;-69
2023/07/10 12:40:28;;;;;;;12.33;4.60;;;33.10;40.60;;;;;;5033987;28;20438;-69
2023/07/10 12:43:07;;;;;;;7.47;4.93;;;33.20;41.10;;;;;;5034653;28;20438;-70
2023/07/10 12:45:35;;;;;;;5.93;4.33;;;33.20;41.00;;;;;;5034605;28;20468;-69
2023/07/10 12:48:11;;;;;;;8.23;5.30;;;33.30;41.40;;;;;;5034862;28;20524;-69
2023/07/10 12:50:43;;;;;;;10.33;4.90;;;33.30;41.40;;;;;;5034860;28;20505;-69
2023/07/10 12:53:20;;;;;;;6.67;4.70;;;33.30;40.70;;;;;;5034952;28;20508;-69
2023/07/10 12:55:49;;;;;;;10.53;5.70;;;33.40;41.30;;;;;;5034448;28;20975;-69
2023/07/10 12:58:16;;;;;;;7.10;5.93;;;33.40;40.20;;;;;;5046297;28;20440;-69
2023/07/10 13:00:55;;;;;;;10.47;5.40;;;33.30;40.40;;;;;;5054626;28;20520;-69
2023/07/10 13:03:26;;;;;;;6.10;5.13;;;33.20;40.90;;;;;;5054594;28;20426;-69